createdAt,value
2018-07-23T00:01:07.591Z,14.03
2018-07-23T00:03:36.482Z,15.13
2018-07-23T00:06:05.387Z,13.90
2018-07-23T00:08:34.284Z,14.73
2018-07-23T00:11:03.112Z,13.50
2018-07-23T00:13:31.973Z,14.07
2018-07-23T00:16:00.815Z,14.50
2018-07-23T00:18:29.617Z,14.30
2018-07-23T00:20:58.493Z,14.60
2018-07-23T00:23:27.317Z,14.43
2018-07-23T00:25:56.312Z,14.97
2018-07-23T00:28:25.163Z,14.93
2018-07-23T00:30:54.049Z,14.10
2018-07-23T00:33:22.888Z,13.93
2018-07-23T00:35:51.718Z,14.93
2018-07-23T00:38:20.566Z,14.70
2018-07-23T00:40:49.363Z,16.53
2018-07-23T00:43:18.195Z,14.47
2018-07-23T00:45:46.994Z,15.70
2018-07-23T00:48:15.803Z,15.20
2018-07-23T00:50:44.680Z,15.47
2018-07-23T00:53:13.543Z,15.80
2018-07-23T00:55:42.342Z,16.27
2018-07-23T00:58:11.155Z,15.80
2018-07-23T01:00:39.959Z,15.97
2018-07-23T01:03:08.838Z,15.23
2018-07-23T01:05:38.919Z,15.33
2018-07-23T01:08:08.434Z,17.40
2018-07-23T01:10:37.305Z,15.60
2018-07-23T01:13:06.148Z,15.90
2018-07-23T01:15:35.025Z,16.70
2018-07-23T01:18:03.871Z,16.30
2018-07-23T01:20:32.784Z,17.00
2018-07-23T01:23:01.619Z,16.20
2018-07-23T01:25:30.439Z,16.17
2018-07-23T01:27:59.322Z,16.60
2018-07-23T01:30:28.213Z,16.80
2018-07-23T01:32:57.109Z,16.50
2018-07-23T01:35:25.894Z,17.43
2018-07-23T01:37:54.747Z,17.20
2018-07-23T01:40:23.546Z,17.40
2018-07-23T01:42:52.388Z,18.23
2018-07-23T01:45:21.262Z,17.87
2018-07-23T01:47:50.070Z,18.07
2018-07-23T01:50:18.903Z,17.40
2018-07-23T01:52:47.763Z,17.40
2018-07-23T01:55:16.595Z,18.53
2018-07-23T01:57:45.493Z,18.40
2018-07-23T02:00:14.398Z,18.03
2018-07-23T02:02:43.215Z,18.37
2018-07-23T02:05:12.083Z,18.83
2018-07-23T02:07:40.951Z,17.50
2018-07-23T02:10:09.806Z,17.27
2018-07-23T02:12:38.724Z,18.07
2018-07-23T02:15:07.573Z,17.70
2018-07-23T02:17:36.424Z,18.27
2018-07-23T02:20:05.845Z,18.80
2018-07-23T02:22:35.001Z,19.47
2018-07-23T02:25:03.874Z,17.70
2018-07-23T02:27:32.746Z,16.83
2018-07-23T02:30:01.641Z,16.07
2018-07-23T02:32:30.483Z,17.30
2018-07-23T02:34:59.332Z,17.30
2018-07-23T02:37:28.174Z,17.67
2018-07-23T02:39:57.068Z,15.80
2018-07-23T02:42:25.926Z,14.57
2018-07-23T02:44:54.752Z,14.70
2018-07-23T02:47:23.599Z,14.87
2018-07-23T02:49:52.456Z,14.97
2018-07-23T02:52:21.287Z,15.23
2018-07-23T02:54:50.090Z,15.03
2018-07-23T02:57:18.933Z,14.17
2018-07-23T02:59:47.752Z,14.60
2018-07-23T03:02:16.547Z,15.00
2018-07-23T03:04:45.430Z,16.30
2018-07-23T03:07:14.230Z,16.50
2018-07-23T03:09:43.181Z,18.17
2018-07-23T03:12:11.986Z,17.27
2018-07-23T03:14:40.811Z,16.03
2018-07-23T03:17:09.676Z,17.97
2018-07-23T03:19:38.577Z,16.53
2018-07-23T03:22:07.495Z,18.50
2018-07-23T03:24:36.287Z,16.10
2018-07-23T03:27:05.214Z,17.60
2018-07-23T03:29:34.053Z,16.13
2018-07-23T03:32:02.913Z,15.73
2018-07-23T03:34:31.726Z,16.13
2018-07-23T03:37:00.535Z,15.23
2018-07-23T03:39:29.346Z,16.40
2018-07-23T03:41:58.184Z,16.27
2018-07-23T03:44:27.061Z,16.57
2018-07-23T03:46:55.919Z,13.87
2018-07-23T03:49:24.764Z,15.80
2018-07-23T03:51:53.645Z,13.57
2018-07-23T03:54:22.475Z,16.13
2018-07-23T03:56:51.344Z,15.20
2018-07-23T03:59:20.187Z,14.37
2018-07-23T04:01:48.986Z,14.53
2018-07-23T04:04:18.387Z,14.20
2018-07-23T04:06:48.860Z,14.20
2018-07-23T04:09:17.993Z,14.47
2018-07-23T04:11:46.815Z,13.50
2018-07-23T04:14:16.052Z,13.97
2018-07-23T04:16:44.888Z,13.37
2018-07-23T04:19:13.752Z,14.20
2018-07-23T04:21:42.595Z,12.53
2018-07-23T04:24:11.478Z,13.13
2018-07-23T04:26:40.323Z,11.70
2018-07-23T04:29:09.208Z,12.87
2018-07-23T04:31:38.106Z,13.10
2018-07-23T04:34:06.907Z,12.07
2018-07-23T04:36:35.736Z,12.70
2018-07-23T04:39:06.965Z,11.00
2018-07-23T04:41:36.223Z,12.10
2018-07-23T04:44:05.064Z,10.83
2018-07-23T04:46:33.913Z,12.10
2018-07-23T04:49:02.740Z,10.47
2018-07-23T04:51:31.620Z,12.33
2018-07-23T04:54:00.447Z,10.50
2018-07-23T04:56:29.279Z,11.30
2018-07-23T04:58:58.263Z,10.73
2018-07-23T05:01:27.225Z,10.53
2018-07-23T05:03:56.116Z,11.07
2018-07-23T05:06:24.912Z,10.63
2018-07-23T05:08:53.756Z,10.50
2018-07-23T05:11:22.575Z,11.00
2018-07-23T05:13:51.409Z,9.97
2018-07-23T05:16:20.226Z,9.97
2018-07-23T05:18:49.157Z,10.30
2018-07-23T05:21:18.022Z,9.90
2018-07-23T05:23:46.943Z,10.73
2018-07-23T05:26:15.758Z,9.80
2018-07-23T05:28:44.642Z,9.40
2018-07-23T05:31:13.508Z,9.13
2018-07-23T05:33:42.360Z,9.70
2018-07-23T05:36:11.200Z,9.83
2018-07-23T05:38:40.109Z,10.43
2018-07-23T05:41:08.968Z,10.70
2018-07-23T05:43:37.819Z,9.70
2018-07-23T05:46:06.745Z,8.53
2018-07-23T05:48:35.609Z,9.00
2018-07-23T05:51:04.460Z,8.30
2018-07-23T05:53:33.328Z,7.73
2018-07-23T05:56:02.134Z,7.20
2018-07-23T05:58:30.983Z,7.80
2018-07-23T06:00:59.916Z,6.77
2018-07-23T06:03:28.792Z,6.17
2018-07-23T06:05:57.671Z,7.13
2018-07-23T06:08:27.380Z,6.87
2018-07-23T06:10:56.270Z,6.17
2018-07-23T06:13:25.139Z,6.10
2018-07-23T06:15:53.914Z,6.33
2018-07-23T06:18:22.760Z,6.00
2018-07-23T06:20:51.681Z,6.93
2018-07-23T06:23:20.507Z,6.00
2018-07-23T06:25:49.353Z,6.47
2018-07-23T06:28:18.146Z,6.73
2018-07-23T06:30:46.985Z,6.77
2018-07-23T06:33:15.809Z,6.50
2018-07-23T06:35:44.732Z,6.77
2018-07-23T06:38:13.576Z,7.70
2018-07-23T06:40:42.382Z,7.07
2018-07-23T06:43:11.204Z,6.93
2018-07-23T06:45:40.044Z,6.97
2018-07-23T06:48:08.873Z,6.07
2018-07-23T06:50:37.713Z,6.40
2018-07-23T06:53:06.939Z,6.73
2018-07-23T06:55:35.809Z,5.30
2018-07-23T06:58:04.684Z,6.43
2018-07-23T07:00:33.572Z,5.87
2018-07-23T07:03:02.392Z,5.40
2018-07-23T07:05:31.236Z,5.50
2018-07-23T07:08:00.087Z,5.20
2018-07-23T07:10:28.987Z,6.00
2018-07-23T07:12:57.848Z,6.23
2018-07-23T07:15:26.644Z,5.43
2018-07-23T07:17:55.503Z,6.27
2018-07-23T07:20:24.339Z,5.40
2018-07-23T07:22:53.160Z,4.60
2018-07-23T07:25:22.027Z,4.90
2018-07-23T07:27:50.995Z,4.70
2018-07-23T07:30:19.823Z,7.30
2018-07-23T07:32:48.647Z,4.13
2018-07-23T07:35:17.508Z,5.00
2018-07-23T07:37:46.360Z,4.53
2018-07-23T07:40:15.206Z,4.10
2018-07-23T07:42:44.007Z,4.50
2018-07-23T07:45:12.834Z,4.80
2018-07-23T07:47:41.679Z,4.63
2018-07-23T07:50:10.513Z,3.90
2018-07-23T07:52:39.344Z,3.87
2018-07-23T07:55:08.187Z,4.00
2018-07-23T07:57:37.052Z,3.60
2018-07-23T08:00:06.140Z,4.40
2018-07-23T08:02:34.961Z,4.27
2018-07-23T08:05:03.820Z,3.73
2018-07-23T08:07:32.644Z,4.30
2018-07-23T08:10:01.506Z,3.83
2018-07-23T08:12:30.415Z,3.80
2018-07-23T08:14:59.241Z,4.97
2018-07-23T08:17:28.133Z,3.80
2018-07-23T08:19:57.030Z,4.20
2018-07-23T08:22:25.834Z,4.10
2018-07-23T08:24:54.680Z,3.50
2018-07-23T08:27:23.528Z,3.23
2018-07-23T08:29:52.354Z,3.20
2018-07-23T08:32:21.280Z,3.40
2018-07-23T08:34:50.221Z,2.63
2018-07-23T08:37:19.076Z,3.20
2018-07-23T08:39:47.924Z,2.83
2018-07-23T08:42:16.715Z,3.40
2018-07-23T08:44:45.555Z,2.90
2018-07-23T08:47:14.395Z,3.50
2018-07-23T08:49:43.259Z,3.90
2018-07-23T08:52:12.055Z,4.03
2018-07-23T08:54:40.932Z,3.03
2018-07-23T08:57:09.898Z,2.43
2018-07-23T08:59:38.695Z,3.43
2018-07-23T09:02:07.536Z,2.63
2018-07-23T09:04:36.372Z,2.97
2018-07-23T09:07:05.250Z,3.00
2018-07-23T09:09:34.103Z,4.23
2018-07-23T09:12:02.935Z,2.90
2018-07-23T09:14:31.746Z,2.90
2018-07-23T09:17:00.579Z,2.90
2018-07-23T09:19:29.370Z,2.53
2018-07-23T09:21:58.228Z,2.80
2018-07-23T09:24:27.060Z,3.27
2018-07-23T09:26:55.916Z,2.17
2018-07-23T09:29:24.789Z,2.63
2018-07-23T09:31:53.640Z,2.40
2018-07-23T09:34:22.456Z,2.50
2018-07-23T09:36:51.243Z,2.57
2018-07-23T09:39:20.117Z,3.13
2018-07-23T09:41:48.902Z,2.47
2018-07-23T09:44:17.690Z,3.17
2018-07-23T09:46:46.557Z,2.83
2018-07-23T09:49:15.363Z,2.47
2018-07-23T09:51:44.183Z,2.33
2018-07-23T09:54:13.045Z,2.90
2018-07-23T09:56:41.904Z,3.70
2018-07-23T09:59:10.798Z,2.70
2018-07-23T10:01:39.660Z,2.67
2018-07-23T10:04:08.470Z,2.90
2018-07-23T10:06:37.317Z,2.60
2018-07-23T10:09:09.264Z,3.40
2018-07-23T10:11:38.236Z,2.73
2018-07-23T10:14:07.105Z,3.00
2018-07-23T10:16:35.948Z,2.93
2018-07-23T10:19:04.775Z,2.60
2018-07-23T10:21:33.638Z,2.80
2018-07-23T10:24:02.462Z,2.53
2018-07-23T10:26:31.329Z,2.70
2018-07-23T10:29:00.245Z,2.20
2018-07-23T10:31:29.067Z,2.43
2018-07-23T10:33:57.871Z,2.87
2018-07-23T10:36:26.705Z,2.93
2018-07-23T10:38:55.552Z,3.07
2018-07-23T10:41:24.403Z,2.40
2018-07-23T10:43:53.240Z,2.83
2018-07-23T10:46:22.078Z,2.40
2018-07-23T10:48:50.946Z,2.70
2018-07-23T10:51:19.747Z,3.10
2018-07-23T10:53:48.602Z,2.57
2018-07-23T10:56:17.454Z,3.50
2018-07-23T10:58:46.589Z,2.57
2018-07-23T11:01:15.386Z,2.40
2018-07-23T11:03:44.220Z,2.90
2018-07-23T11:06:13.062Z,2.67
2018-07-23T11:08:41.880Z,2.43
2018-07-23T11:11:10.725Z,2.30
2018-07-23T11:13:39.593Z,2.50
2018-07-23T11:16:08.382Z,2.33
2018-07-23T11:18:37.191Z,3.10
2018-07-23T11:21:06.105Z,2.30
2018-07-23T11:23:34.952Z,2.90
2018-07-23T11:26:03.845Z,2.97
2018-07-23T11:28:32.685Z,2.10
2018-07-23T11:31:01.558Z,2.27
2018-07-23T11:33:30.440Z,2.53
2018-07-23T11:35:59.308Z,2.90
2018-07-23T11:38:28.131Z,2.30
2018-07-23T11:40:56.942Z,2.50
2018-07-23T11:43:25.820Z,2.30
2018-07-23T11:45:54.644Z,2.33
2018-07-23T11:48:23.472Z,2.53
2018-07-23T11:50:52.370Z,2.20
2018-07-23T11:53:21.165Z,2.07
2018-07-23T11:55:49.988Z,2.03
2018-07-23T11:58:18.779Z,2.30
2018-07-23T12:00:47.713Z,2.30
2018-07-23T12:03:16.574Z,2.20
2018-07-23T12:05:45.449Z,2.47
2018-07-23T12:08:14.292Z,2.30
2018-07-23T12:10:43.115Z,2.10
2018-07-23T12:13:12.034Z,2.10
2018-07-23T12:15:40.861Z,2.03
2018-07-23T12:18:09.667Z,2.10
2018-07-23T12:20:38.505Z,2.30
2018-07-23T12:23:07.364Z,2.60
2018-07-23T12:25:36.159Z,2.50
2018-07-23T12:28:11.576Z,2.20
2018-07-23T12:30:40.435Z,3.03
2018-07-23T12:33:09.220Z,2.80
2018-07-23T12:35:38.068Z,2.40
2018-07-23T12:38:06.884Z,2.70
2018-07-23T12:40:35.706Z,2.23
2018-07-23T12:43:04.527Z,2.47
2018-07-23T12:45:33.343Z,2.20
2018-07-23T12:48:02.168Z,2.20
2018-07-23T12:50:31.020Z,2.37
2018-07-23T12:52:59.885Z,2.30
2018-07-23T12:55:28.737Z,2.30
2018-07-23T12:57:57.580Z,2.20
2018-07-23T13:00:26.400Z,2.50
2018-07-23T13:02:55.387Z,2.43
2018-07-23T13:05:30.282Z,2.37
2018-07-23T13:08:00.046Z,2.33
2018-07-23T13:10:28.920Z,2.17
2018-07-23T13:12:57.774Z,2.20
2018-07-23T13:15:26.612Z,2.13
2018-07-23T13:17:55.414Z,2.17
2018-07-23T13:20:24.544Z,1.87
2018-07-23T13:22:53.381Z,2.17
2018-07-23T13:25:22.193Z,2.30
2018-07-23T13:27:51.076Z,1.90
2018-07-23T13:30:19.904Z,1.83
2018-07-23T13:32:48.780Z,1.83
2018-07-23T13:35:17.715Z,2.17
2018-07-23T13:37:46.602Z,2.27
2018-07-23T13:40:15.476Z,2.30
2018-07-23T13:42:44.406Z,2.40
2018-07-23T13:45:13.307Z,1.80
2018-07-23T13:47:42.091Z,1.93
2018-07-23T13:50:10.961Z,2.20
2018-07-23T13:52:39.810Z,1.70
2018-07-23T13:55:08.635Z,2.00
2018-07-23T13:57:37.488Z,1.60
2018-07-23T14:00:06.940Z,1.70
2018-07-23T14:02:35.843Z,1.93
2018-07-23T14:05:05.032Z,1.92
2018-07-23T14:07:33.895Z,1.80
2018-07-23T14:10:02.688Z,1.80
2018-07-23T14:12:31.485Z,1.70
2018-07-23T14:15:00.327Z,1.80
2018-07-23T14:17:29.236Z,1.75
2018-07-23T14:19:58.092Z,1.50
2018-07-23T14:22:26.972Z,1.70
2018-07-23T14:24:55.956Z,1.55
2018-07-23T14:27:24.846Z,1.60
2018-07-23T14:29:53.690Z,1.72
2018-07-23T14:32:22.537Z,1.70
2018-07-23T14:34:51.355Z,2.20
2018-07-23T14:37:20.187Z,2.50
2018-07-23T14:39:49.094Z,2.13
2018-07-23T14:42:17.965Z,2.33
2018-07-23T14:44:46.787Z,2.40
2018-07-23T14:47:15.677Z,2.60
2018-07-23T14:49:44.617Z,2.62
2018-07-23T14:52:13.398Z,2.30
2018-07-23T14:54:42.195Z,2.15
2018-07-23T14:57:11.056Z,2.50
2018-07-23T14:59:39.878Z,2.72
2018-07-23T15:02:08.757Z,2.43
2018-07-23T15:04:37.617Z,2.20
2018-07-23T15:07:06.624Z,2.67
2018-07-23T15:09:35.671Z,2.00
2018-07-23T15:12:04.575Z,2.20
2018-07-23T15:14:33.428Z,1.87
2018-07-23T15:17:02.210Z,1.87
2018-07-23T15:19:31.034Z,2.12
2018-07-23T15:21:59.911Z,1.70
2018-07-23T15:24:28.782Z,1.50
2018-07-23T15:26:57.716Z,1.77
2018-07-23T15:29:26.547Z,1.90
2018-07-23T15:31:55.395Z,1.80
2018-07-23T15:34:24.225Z,1.60
2018-07-23T15:36:53.618Z,1.67
2018-07-23T15:39:22.491Z,1.57
2018-07-23T15:41:51.278Z,1.45
2018-07-23T15:44:20.506Z,1.90
2018-07-23T15:46:49.216Z,1.35
2018-07-23T15:49:18.254Z,1.50
2018-07-23T15:51:47.137Z,1.70
2018-07-23T15:54:16.008Z,1.40
2018-07-23T15:56:44.873Z,1.20
2018-07-23T15:59:13.755Z,1.67
2018-07-23T16:01:42.615Z,1.60
2018-07-23T16:04:11.471Z,1.50
2018-07-23T16:06:40.287Z,1.93
2018-07-23T16:09:11.982Z,2.00
2018-07-23T16:11:40.867Z,1.43
2018-07-23T16:14:09.865Z,1.70
2018-07-23T16:16:38.971Z,1.90
2018-07-23T16:19:08.210Z,1.80
2018-07-23T16:21:36.993Z,1.43
2018-07-23T16:24:05.885Z,1.90
2018-07-23T16:26:34.727Z,2.07
2018-07-23T16:29:03.531Z,1.77
2018-07-23T16:31:32.310Z,1.90
2018-07-23T16:34:01.109Z,1.70
2018-07-23T16:36:29.964Z,2.00
2018-07-23T16:38:58.783Z,1.70
2018-07-23T16:41:27.610Z,1.80
2018-07-23T16:43:56.484Z,1.70
2018-07-23T16:46:25.331Z,1.50
2018-07-23T16:48:54.106Z,1.63
2018-07-23T16:51:22.972Z,1.50
2018-07-23T16:53:51.803Z,1.93
2018-07-23T16:56:20.667Z,1.90
2018-07-23T16:58:49.545Z,1.80
2018-07-23T17:01:18.771Z,1.93
2018-07-23T17:03:47.588Z,2.23
2018-07-23T17:06:16.369Z,2.10
2018-07-23T17:08:45.162Z,2.10
2018-07-23T17:11:14.158Z,2.00
2018-07-23T17:13:43.001Z,1.60
2018-07-23T17:16:12.003Z,2.07
2018-07-23T17:18:40.864Z,1.90
2018-07-23T17:21:10.095Z,2.40
2018-07-23T17:23:38.955Z,1.93
2018-07-23T17:26:07.792Z,2.27
2018-07-23T17:28:36.645Z,2.00
2018-07-23T17:31:05.515Z,2.83
2018-07-23T17:33:34.336Z,3.00
2018-07-23T17:36:03.213Z,2.50
2018-07-23T17:38:32.047Z,2.80
2018-07-23T17:41:00.958Z,2.30
2018-07-23T17:43:29.821Z,2.70
2018-07-23T17:45:58.767Z,2.77
2018-07-23T17:51:25.451Z,2.60
2018-07-23T17:53:54.322Z,2.63
2018-07-23T17:56:23.136Z,2.10
2018-07-23T17:58:51.980Z,2.40
2018-07-23T18:01:20.832Z,2.80
2018-07-23T18:03:49.693Z,3.77
2018-07-23T18:06:18.746Z,3.57
2018-07-23T18:08:47.707Z,2.50
2018-07-23T18:11:16.889Z,2.77
2018-07-23T18:13:45.687Z,2.60
2018-07-23T18:16:14.573Z,2.70
2018-07-23T18:18:43.411Z,3.13
2018-07-23T18:21:12.260Z,2.90
2018-07-23T18:23:41.060Z,2.63
2018-07-23T18:26:09.959Z,3.60
2018-07-23T18:28:38.869Z,2.80
2018-07-23T18:31:07.667Z,3.07
2018-07-23T18:33:36.540Z,3.00
2018-07-23T18:36:05.432Z,3.60
2018-07-23T18:38:34.455Z,3.37
2018-07-23T18:41:03.162Z,2.80
2018-07-23T18:43:32.021Z,3.20
2018-07-23T18:46:00.890Z,3.00
2018-07-23T18:49:46.228Z,3.77
2018-07-23T18:52:15.622Z,3.70
2018-07-23T18:54:45.900Z,3.53
2018-07-23T18:57:14.771Z,3.80
2018-07-23T18:59:43.718Z,3.47
2018-07-23T19:02:13.804Z,4.20
2018-07-23T19:04:42.684Z,3.90
2018-07-23T19:07:11.511Z,4.57
2018-07-23T19:09:40.326Z,4.00
2018-07-23T19:12:09.750Z,4.23
2018-07-23T19:14:38.612Z,3.90
2018-07-23T19:17:09.016Z,4.53
2018-07-23T19:19:37.881Z,3.60
2018-07-23T19:22:07.195Z,4.20
2018-07-23T19:24:36.075Z,8.20
2018-07-23T19:27:05.172Z,6.77
2018-07-23T19:29:34.042Z,6.97
2018-07-23T19:32:02.893Z,6.67
2018-07-23T19:34:31.721Z,5.23
2018-07-23T19:37:00.616Z,4.27
2018-07-23T19:39:29.455Z,4.80
2018-07-23T19:41:58.364Z,3.60
2018-07-23T19:44:27.310Z,4.60
2018-07-23T19:46:56.123Z,4.20
2018-07-23T19:49:24.980Z,4.80
2018-07-23T19:51:53.818Z,4.40
2018-07-23T19:54:22.700Z,4.37
2018-07-23T19:56:51.531Z,4.07
2018-07-23T19:59:20.375Z,4.20
2018-07-23T20:01:49.277Z,4.47
2018-07-23T20:04:18.136Z,4.80
2018-07-23T20:06:47.000Z,5.40
2018-07-23T20:09:15.890Z,5.33
2018-07-23T20:11:44.723Z,5.90
2018-07-23T20:14:13.629Z,5.47
2018-07-23T20:16:42.418Z,4.87
2018-07-23T20:19:11.266Z,5.30
2018-07-23T20:21:40.086Z,5.70
2018-07-23T20:24:08.954Z,4.67
2018-07-23T20:26:37.789Z,5.57
2018-07-23T20:29:06.782Z,5.47
2018-07-23T20:31:35.604Z,5.17
2018-07-23T20:34:04.522Z,5.40
2018-07-23T20:36:33.331Z,5.00
2018-07-23T20:39:02.181Z,5.30
2018-07-23T20:41:31.012Z,4.70
2018-07-23T20:43:59.871Z,3.90
2018-07-23T20:46:28.683Z,4.13
2018-07-23T20:48:57.470Z,4.73
2018-07-23T20:51:26.352Z,4.90
2018-07-23T20:53:55.183Z,4.63
2018-07-23T20:56:24.039Z,4.20
2018-07-23T20:58:52.929Z,4.57
2018-07-23T21:01:21.816Z,3.73
2018-07-23T21:03:50.701Z,4.10
2018-07-23T21:06:19.531Z,4.57
2018-07-23T21:08:48.354Z,4.30
2018-07-23T21:11:17.179Z,4.17
2018-07-23T21:13:46.215Z,4.93
2018-07-23T21:16:15.014Z,16.57
2018-07-23T21:18:43.827Z,4.37
2018-07-23T21:21:12.655Z,4.50
2018-07-23T21:23:41.508Z,4.80
2018-07-23T21:26:10.374Z,4.90
2018-07-23T21:28:39.193Z,3.77
2018-07-23T21:31:08.159Z,4.00
2018-07-23T21:33:36.949Z,4.07
2018-07-23T21:36:06.091Z,4.23
2018-07-23T21:38:34.968Z,4.00
2018-07-23T21:41:03.795Z,4.17
2018-07-23T21:43:32.639Z,4.20
2018-07-23T21:46:01.488Z,3.73
2018-07-23T21:48:30.293Z,4.30
2018-07-23T21:50:59.134Z,4.50
2018-07-23T21:53:27.968Z,5.13
2018-07-23T21:55:56.817Z,5.00
2018-07-23T21:58:25.880Z,3.60
2018-07-23T22:00:54.724Z,4.43
2018-07-23T22:03:23.645Z,4.30
2018-07-23T22:05:52.491Z,4.60
2018-07-23T22:08:21.301Z,4.70
2018-07-23T22:10:50.172Z,5.03
2018-07-23T22:13:19.053Z,4.20
2018-07-23T22:15:47.867Z,5.30
2018-07-23T22:18:16.723Z,4.33
2018-07-23T22:20:45.506Z,4.73
2018-07-23T22:23:14.331Z,4.77
2018-07-23T22:25:43.142Z,4.40
2018-07-23T22:28:11.995Z,4.50
2018-07-23T22:30:40.814Z,4.63
2018-07-23T22:33:09.697Z,4.20
2018-07-23T22:35:38.508Z,4.40
2018-07-23T22:38:07.425Z,4.40
2018-07-23T22:40:36.263Z,4.10
2018-07-23T22:43:05.082Z,4.60
2018-07-23T22:45:33.956Z,4.50
2018-07-23T22:48:02.843Z,4.50
2018-07-23T22:50:31.713Z,4.50
2018-07-23T22:53:00.575Z,4.20
2018-07-23T22:55:29.461Z,4.77
2018-07-23T22:57:58.279Z,4.73
2018-07-23T23:00:27.136Z,4.60
2018-07-23T23:02:55.987Z,4.17
2018-07-23T23:05:24.811Z,4.67
2018-07-23T23:07:53.675Z,5.27
2018-07-23T23:10:22.531Z,4.80
2018-07-23T23:12:51.363Z,3.73
2018-07-23T23:15:20.195Z,5.60
2018-07-23T23:17:49.047Z,4.80
2018-07-23T23:20:17.926Z,4.37
2018-07-23T23:22:46.767Z,4.70
2018-07-23T23:25:15.645Z,5.60
2018-07-23T23:27:44.465Z,5.43
2018-07-23T23:30:13.298Z,5.30
2018-07-23T23:32:42.139Z,5.43
2018-07-23T23:35:11.009Z,4.67
2018-07-23T23:37:39.831Z,4.50
2018-07-23T23:40:08.701Z,5.90
2018-07-23T23:42:37.530Z,5.03
2018-07-23T23:45:06.565Z,5.27
2018-07-23T23:47:35.403Z,5.07
2018-07-23T23:50:05.408Z,5.20
2018-07-23T23:52:34.289Z,5.30
2018-07-23T23:55:03.163Z,5.47
2018-07-23T23:57:32.283Z,5.33
